Weather at Calais Regional Hospital Heliport

Public forecast

Using degrees Fahrenheit for public forecast. Weather courtesy of forecast.io.

Closest aviation weather report (METAR) to Calais Regional Hospital Heliport

Closest report is Fredericton Airport, 51.7 nm (95.7 km) NE. Retrieved 2020/09/27 03:00 UTC (51 minutes ago):

CYFC 270300Z AUTO 19006KT 9SM CLR 11/10 A3006 RMK SLP181

Closest aviation forecast (TAF) to Calais Regional Hospital Heliport

Closest forecast is Fredericton Airport, 51.7 nm (95.7 km) NE. Retrieved 2020-09-27 00:42 UTC (3 hours ago):

TAF CYFC 262338Z 2700/2712 18008KT P6SM SKC FM270400 20007KT P6SM SCT007 TEMPO 2704/2706 5SM BR BKN007 FM270600 20007KT 6SM BR OVC007 TEMPO 2706/2712 2SM -DZ BR OVC004 PROB30 2706/2712 3/4SM BR OVC002 RMK FCST BASED ON AUTO OBS NXT FCST BY 270600Z